Raccoon Key, Florida
Current Conditions -  °F | °C
As of 5:30 AM on Thursday 23 Oct 2014 (Local Time) from KEYW Reporting Station
Light Rain Light Rain  
Wind Chill: 76°   Ceiling: 1700
Heat Index: 76°   Visibility: 10mi
Dew Point: 74°   Wind: 13mph
Humidity: 94%   Direction: 80°E
Pressure: 29.85"   Gusts: NA
Location:  24.5796°N, 81.6849°W
Report Text: KEYW 230930Z AUTO 08011KT 10SM -RA BKN017 OVC022 24/23 A2985 RMK AO2 P0001 T02440233
Loading
Personal Weather Stations






























Interactive Weather Map
Tropical Storm Tracking
New forecast layout! Learn more

10-Day Weather Forecast

Advertisements
Track Severe Weather on mobile